sensor_id;sensor_type;location;lat;lon;timestamp;pressure;altitude;pressure_sealevel;temperature;humidity
48530;BME280;34927;37.302;-121.982;2023-04-15T00:00:12;100789.0;;;24.51;29.33
48530;BME280;34927;37.302;-121.982;2023-04-15T00:01:16;100791.0;;;24.54;29.33
48530;BME280;34927;37.302;-121.982;2023-04-15T00:02:21;100790.0;;;24.52;29.32
48530;BME280;34927;37.302;-121.982;2023-04-15T00:03:27;100792.0;;;24.56;29.30
48530;BME280;34927;37.302;-121.982;2023-04-15T00:04:32;100794.0;;;24.61;29.33
48530;BME280;34927;37.302;-121.982;2023-04-15T00:05:37;100797.0;;;24.61;29.33
48530;BME280;34927;37.302;-121.982;2023-04-15T00:06:42;100795.0;;;24.67;29.28
48530;BME280;34927;37.302;-121.982;2023-04-15T00:07:47;100792.0;;;24.74;29.30
48530;BME280;34927;37.302;-121.982;2023-04-15T00:08:52;100792.0;;;24.76;29.16
48530;BME280;34927;37.302;-121.982;2023-04-15T00:09:56;100788.0;;;24.77;29.18
48530;BME280;34927;37.302;-121.982;2023-04-15T00:11:02;100792.0;;;24.82;29.22
48530;BME280;34927;37.302;-121.982;2023-04-15T00:12:07;100790.0;;;24.81;29.32
48530;BME280;34927;37.302;-121.982;2023-04-15T00:13:12;100787.0;;;24.77;29.39
48530;BME280;34927;37.302;-121.982;2023-04-15T00:14:16;100786.0;;;24.70;29.57
48530;BME280;34927;37.302;-121.982;2023-04-15T00:15:22;100784.0;;;24.80;29.41
48530;BME280;34927;37.302;-121.982;2023-04-15T00:16:27;100782.0;;;24.90;29.29
48530;BME280;34927;37.302;-121.982;2023-04-15T00:17:31;100778.0;;;24.97;29.22
48530;BME280;34927;37.302;-121.982;2023-04-15T00:18:36;100778.0;;;25.01;29.15
48530;BME280;34927;37.302;-121.982;2023-04-15T00:19:41;100779.0;;;25.11;29.05
48530;BME280;34927;37.302;-121.982;2023-04-15T00:20:46;100774.0;;;25.16;28.96
48530;BME280;34927;37.302;-121.982;2023-04-15T00:21:51;100781.0;;;25.21;28.97
48530;BME280;34927;37.302;-121.982;2023-04-15T00:22:56;100779.0;;;25.23;29.00
48530;BME280;34927;37.302;-121.982;2023-04-15T00:24:01;100784.0;;;25.21;29.01
48530;BME280;34927;37.302;-121.982;2023-04-15T00:25:08;100784.0;;;25.33;28.92
48530;BME280;34927;37.302;-121.982;2023-04-15T00:26:12;100783.0;;;25.33;28.85
48530;BME280;34927;37.302;-121.982;2023-04-15T00:27:17;100786.0;;;25.42;28.83
48530;BME280;34927;37.302;-121.982;2023-04-15T00:28:22;100789.0;;;25.41;28.81
48530;BME280;34927;37.302;-121.982;2023-04-15T00:29:26;100786.0;;;25.43;28.83
48530;BME280;34927;37.302;-121.982;2023-04-15T00:30:31;100788.0;;;25.48;28.86
48530;BME280;34927;37.302;-121.982;2023-04-15T00:31:37;100790.0;;;25.50;28.91
48530;BME280;34927;37.302;-121.982;2023-04-15T00:32:42;100790.0;;;25.52;28.80
48530;BME280;34927;37.302;-121.982;2023-04-15T00:33:47;100793.0;;;25.53;28.88
48530;BME280;34927;37.302;-121.982;2023-04-15T00:34:51;100792.0;;;25.58;28.85
48530;BME280;34927;37.302;-121.982;2023-04-15T00:35:57;100794.0;;;25.58;28.89
48530;BME280;34927;37.302;-121.982;2023-04-15T00:37:01;100794.0;;;25.64;28.86
48530;BME280;34927;37.302;-121.982;2023-04-15T00:38:06;100796.0;;;25.69;28.81
48530;BME280;34927;37.302;-121.982;2023-04-15T00:39:11;100795.0;;;25.72;28.73
48530;BME280;34927;37.302;-121.982;2023-04-15T00:40:18;100797.0;;;25.72;28.70
48530;BME280;34927;37.302;-121.982;2023-04-15T00:41:21;100801.0;;;25.71;28.71
48530;BME280;34927;37.302;-121.982;2023-04-15T00:42:27;100804.0;;;25.57;28.83
48530;BME280;34927;37.302;-121.982;2023-04-15T00:43:32;100808.0;;;25.62;28.83
48530;BME280;34927;37.302;-121.982;2023-04-15T00:44:37;100804.0;;;25.64;28.87
48530;BME280;34927;37.302;-121.982;2023-04-15T00:45:42;100805.0;;;25.62;28.98
48530;BME280;34927;37.302;-121.982;2023-04-15T00:46:48;100802.0;;;25.66;28.94
48530;BME280;34927;37.302;-121.982;2023-04-15T00:47:53;100803.0;;;25.61;29.02
48530;BME280;34927;37.302;-121.982;2023-04-15T00:48:57;100805.0;;;25.66;29.03
48530;BME280;34927;37.302;-121.982;2023-04-15T00:50:02;100803.0;;;25.68;29.01
48530;BME280;34927;37.302;-121.982;2023-04-15T00:51:06;100802.0;;;25.56;29.19
48530;BME280;34927;37.302;-121.982;2023-04-15T00:52:11;100797.0;;;25.35;29.52
48530;BME280;34927;37.302;-121.982;2023-04-15T00:53:17;100798.0;;;25.51;29.42
48530;BME280;34927;37.302;-121.982;2023-04-15T00:54:22;100797.0;;;25.40;29.61
48530;BME280;34927;37.302;-121.982;2023-04-15T00:55:26;100800.0;;;25.40;29.66
48530;BME280;34927;37.302;-121.982;2023-04-15T00:56:35;100801.0;;;25.35;29.79
48530;BME280;34927;37.302;-121.982;2023-04-15T00:57:42;100803.0;;;25.32;29.99
48530;BME280;34927;37.302;-121.982;2023-04-15T00:58:48;100799.0;;;25.46;29.75
48530;BME280;34927;37.302;-121.982;2023-04-15T00:59:52;100800.0;;;25.37;29.98
48530;BME280;34927;37.302;-121.982;2023-04-15T01:00:57;100804.0;;;25.20;30.24
48530;BME280;34927;37.302;-121.982;2023-04-15T01:02:02;100804.0;;;25.16;30.30
48530;BME280;34927;37.302;-121.982;2023-04-15T01:03:07;100805.0;;;25.22;30.20
48530;BME280;34927;37.302;-121.982;2023-04-15T01:04:12;100805.0;;;25.50;29.80
48530;BME280;34927;37.302;-121.982;2023-04-15T01:05:17;100805.0;;;25.47;29.82
48530;BME280;34927;37.302;-121.982;2023-04-15T01:06:21;100806.0;;;25.47;29.85
48530;BME280;34927;37.302;-121.982;2023-04-15T01:07:27;100807.0;;;25.44;29.74
48530;BME280;34927;37.302;-121.982;2023-04-15T01:08:31;100809.0;;;25.45;29.81
48530;BME280;34927;37.302;-121.982;2023-04-15T01:09:37;100807.0;;;25.38;29.90
48530;BME280;34927;37.302;-121.982;2023-04-15T01:10:42;100809.0;;;25.39;29.89
48530;BME280;34927;37.302;-121.982;2023-04-15T01:11:46;100812.0;;;25.36;29.89
48530;BME280;34927;37.302;-121.982;2023-04-15T01:12:51;100815.0;;;25.32;29.94
48530;BME280;34927;37.302;-121.982;2023-04-15T01:13:58;100817.0;;;25.32;29.97
48530;BME280;34927;37.302;-121.982;2023-04-15T01:15:02;100818.0;;;25.28;30.07
48530;BME280;34927;37.302;-121.982;2023-04-15T01:16:09;100821.0;;;25.27;30.10
48530;BME280;34927;37.302;-121.982;2023-04-15T01:17:12;100821.0;;;25.23;30.10
48530;BME280;34927;37.302;-121.982;2023-04-15T01:18:17;100824.0;;;25.20;30.14
48530;BME280;34927;37.302;-121.982;2023-04-15T01:19:22;100826.0;;;25.23;30.13
48530;BME280;34927;37.302;-121.982;2023-04-15T01:20:27;100826.0;;;25.29;30.01
48530;BME280;34927;37.302;-121.982;2023-04-15T01:21:31;100829.0;;;25.20;30.12
48530;BME280;34927;37.302;-121.982;2023-04-15T01:22:37;100829.0;;;25.16;30.21
48530;BME280;34927;37.302;-121.982;2023-04-15T01:23:44;100827.0;;;25.11;30.30
48530;BME280;34927;37.302;-121.982;2023-04-15T01:25:09;100830.0;;;25.14;30.27
48530;BME280;34927;37.302;-121.982;2023-04-15T01:26:11;100834.0;;;25.10;30.33
48530;BME280;34927;37.302;-121.982;2023-04-15T01:27:16;100836.0;;;25.04;30.48
48530;BME280;34927;37.302;-121.982;2023-04-15T01:28:22;100838.0;;;25.04;30.53
48530;BME280;34927;37.302;-121.982;2023-04-15T01:29:27;100838.0;;;24.95;30.66
48530;BME280;34927;37.302;-121.982;2023-04-15T01:30:34;100841.0;;;24.90;30.71
48530;BME280;34927;37.302;-121.982;2023-04-15T01:31:37;100841.0;;;24.96;30.64
48530;BME280;34927;37.302;-121.982;2023-04-15T01:32:41;100848.0;;;24.90;30.73
48530;BME280;34927;37.302;-121.982;2023-04-15T01:33:46;100846.0;;;24.82;30.94
48530;BME280;34927;37.302;-121.982;2023-04-15T01:34:51;100846.0;;;24.73;31.04
48530;BME280;34927;37.302;-121.982;2023-04-15T01:35:56;100849.0;;;24.72;31.06
48530;BME280;34927;37.302;-121.982;2023-04-15T01:37:02;100850.0;;;24.71;30.99
48530;BME280;34927;37.302;-121.982;2023-04-15T01:38:10;100848.0;;;24.66;31.05
48530;BME280;34927;37.302;-121.982;2023-04-15T01:39:12;100850.0;;;24.65;31.24
48530;BME280;34927;37.302;-121.982;2023-04-15T01:40:17;100849.0;;;24.64;31.15
48530;BME280;34927;37.302;-121.982;2023-04-15T01:41:24;100850.0;;;24.61;31.14
48530;BME280;34927;37.302;-121.982;2023-04-15T01:42:27;100854.0;;;24.64;31.16
48530;BME280;34927;37.302;-121.982;2023-04-15T01:43:32;100853.0;;;24.55;31.27
48530;BME280;34927;37.302;-121.982;2023-04-15T01:44:36;100855.0;;;24.47;31.47
48530;BME280;34927;37.302;-121.982;2023-04-15T01:45:41;100855.0;;;24.47;31.52
48530;BME280;34927;37.302;-121.982;2023-04-15T01:46:46;100859.0;;;24.43;31.61
48530;BME280;34927;37.302;-121.982;2023-04-15T01:47:51;100860.0;;;24.44;31.51
48530;BME280;34927;37.302;-121.982;2023-04-15T01:48:57;100860.0;;;24.43;31.58
48530;BME280;34927;37.302;-121.982;2023-04-15T01:50:02;100859.0;;;24.42;31.60
48530;BME280;34927;37.302;-121.982;2023-04-15T01:51:06;100862.0;;;24.44;31.59
48530;BME280;34927;37.302;-121.982;2023-04-15T01:52:11;100862.0;;;24.39;31.65
48530;BME280;34927;37.302;-121.982;2023-04-15T01:53:16;100860.0;;;24.42;31.65
48530;BME280;34927;37.302;-121.982;2023-04-15T01:54:21;100864.0;;;24.36;31.64
48530;BME280;34927;37.302;-121.982;2023-04-15T01:55:26;100866.0;;;24.34;31.73
48530;BME280;34927;37.302;-121.982;2023-04-15T01:57:36;100868.0;;;24.43;31.64
48530;BME280;34927;37.302;-121.982;2023-04-15T01:58:42;100866.0;;;24.39;31.59
48530;BME280;34927;37.302;-121.982;2023-04-15T01:59:47;100871.0;;;24.38;31.52
48530;BME280;34927;37.302;-121.982;2023-04-15T02:00:52;100871.0;;;24.29;31.53
48530;BME280;34927;37.302;-121.982;2023-04-15T02:01:56;100874.0;;;24.28;31.72
48530;BME280;34927;37.302;-121.982;2023-04-15T02:03:02;100876.0;;;24.26;31.76
48530;BME280;34927;37.302;-121.982;2023-04-15T02:04:07;100876.0;;;24.24;31.72
48530;BME280;34927;37.302;-121.982;2023-04-15T02:05:12;100878.0;;;24.17;31.80
48530;BME280;34927;37.302;-121.982;2023-04-15T02:06:16;100880.0;;;24.22;31.94
48530;BME280;34927;37.302;-121.982;2023-04-15T02:07:21;100877.0;;;24.24;31.92
48530;BME280;34927;37.302;-121.982;2023-04-15T02:08:27;100877.0;;;24.24;31.91
48530;BME280;34927;37.302;-121.982;2023-04-15T02:09:32;100878.0;;;24.32;31.79
48530;BME280;34927;37.302;-121.982;2023-04-15T02:10:37;100875.0;;;24.25;32.05
48530;BME280;34927;37.302;-121.982;2023-04-15T02:11:42;100878.0;;;24.24;32.13
48530;BME280;34927;37.302;-121.982;2023-04-15T02:12:46;100881.0;;;24.27;32.45
48530;BME280;34927;37.302;-121.982;2023-04-15T02:13:52;100880.0;;;24.25;32.33
48530;BME280;34927;37.302;-121.982;2023-04-15T02:14:57;100881.0;;;24.23;32.30
48530;BME280;34927;37.302;-121.982;2023-04-15T02:16:02;100885.0;;;24.21;32.40
48530;BME280;34927;37.302;-121.982;2023-04-15T02:17:07;100885.0;;;24.21;32.31
48530;BME280;34927;37.302;-121.982;2023-04-15T02:18:11;100888.0;;;24.20;32.30
48530;BME280;34927;37.302;-121.982;2023-04-15T02:19:17;100888.0;;;24.11;32.58
48530;BME280;34927;37.302;-121.982;2023-04-15T02:20:22;100891.0;;;24.15;32.51
48530;BME280;34927;37.302;-121.982;2023-04-15T02:21:26;100892.0;;;24.15;32.54
48530;BME280;34927;37.302;-121.982;2023-04-15T02:22:32;100892.0;;;24.09;32.37
48530;BME280;34927;37.302;-121.982;2023-04-15T02:23:37;100895.0;;;24.07;32.58
48530;BME280;34927;37.302;-121.982;2023-04-15T02:24:42;100894.0;;;24.01;32.62
48530;BME280;34927;37.302;-121.982;2023-04-15T02:25:47;100896.0;;;23.94;32.73
48530;BME280;34927;37.302;-121.982;2023-04-15T02:26:52;100898.0;;;24.04;32.54
48530;BME280;34927;37.302;-121.982;2023-04-15T02:27:57;100898.0;;;24.03;32.54
48530;BME280;34927;37.302;-121.982;2023-04-15T02:29:02;100900.0;;;23.96;32.60
48530;BME280;34927;37.302;-121.982;2023-04-15T02:30:08;100900.0;;;23.90;32.64
48530;BME280;34927;37.302;-121.982;2023-04-15T02:31:18;100901.0;;;23.80;32.82
48530;BME280;34927;37.302;-121.982;2023-04-15T02:32:22;100905.0;;;23.84;33.07
48530;BME280;34927;37.302;-121.982;2023-04-15T02:33:27;100904.0;;;23.93;32.81
48530;BME280;34927;37.302;-121.982;2023-04-15T02:34:32;100906.0;;;23.89;32.95
48530;BME280;34927;37.302;-121.982;2023-04-15T02:35:36;100909.0;;;23.92;32.93
48530;BME280;34927;37.302;-121.982;2023-04-15T02:36:41;100912.0;;;23.81;33.11
48530;BME280;34927;37.302;-121.982;2023-04-15T02:37:47;100914.0;;;23.83;33.08
48530;BME280;34927;37.302;-121.982;2023-04-15T02:38:51;100916.0;;;23.81;33.20
48530;BME280;34927;37.302;-121.982;2023-04-15T02:39:56;100915.0;;;23.90;33.12
48530;BME280;34927;37.302;-121.982;2023-04-15T02:41:02;100916.0;;;23.81;33.04
48530;BME280;34927;37.302;-121.982;2023-04-15T02:42:06;100917.0;;;23.84;33.01
48530;BME280;34927;37.302;-121.982;2023-04-15T02:43:12;100921.0;;;23.78;32.92
48530;BME280;34927;37.302;-121.982;2023-04-15T02:44:17;100923.0;;;23.75;33.02
48530;BME280;34927;37.302;-121.982;2023-04-15T02:45:23;100926.0;;;23.71;33.12
48530;BME280;34927;37.302;-121.982;2023-04-15T02:46:27;100925.0;;;23.62;33.17
48530;BME280;34927;37.302;-121.982;2023-04-15T02:47:32;100930.0;;;23.71;33.25
48530;BME280;34927;37.302;-121.982;2023-04-15T02:48:37;100932.0;;;23.68;33.36
48530;BME280;34927;37.302;-121.982;2023-04-15T02:49:42;100934.0;;;23.59;33.47
48530;BME280;34927;37.302;-121.982;2023-04-15T02:50:47;100937.0;;;23.59;33.50
48530;BME280;34927;37.302;-121.982;2023-04-15T02:51:51;100939.0;;;23.52;33.76
48530;BME280;34927;37.302;-121.982;2023-04-15T02:52:56;100939.0;;;23.51;33.71
48530;BME280;34927;37.302;-121.982;2023-04-15T02:54:02;100939.0;;;23.43;33.77
48530;BME280;34927;37.302;-121.982;2023-04-15T02:55:07;100942.0;;;23.17;34.22
48530;BME280;34927;37.302;-121.982;2023-04-15T02:56:12;100945.0;;;23.10;34.61
48530;BME280;34927;37.302;-121.982;2023-04-15T02:57:17;100945.0;;;23.22;34.61
48530;BME280;34927;37.302;-121.982;2023-04-15T02:58:22;100949.0;;;23.28;34.48
48530;BME280;34927;37.302;-121.982;2023-04-15T02:59:27;100951.0;;;23.36;34.58
48530;BME280;34927;37.302;-121.982;2023-04-15T03:00:32;100952.0;;;23.27;34.58
48530;BME280;34927;37.302;-121.982;2023-04-15T03:01:37;100954.0;;;23.33;34.60
48530;BME280;34927;37.302;-121.982;2023-04-15T03:02:43;100956.0;;;23.28;34.70
48530;BME280;34927;37.302;-121.982;2023-04-15T03:03:53;100956.0;;;23.28;34.80
48530;BME280;34927;37.302;-121.982;2023-04-15T03:04:56;100960.0;;;23.35;34.67
48530;BME280;34927;37.302;-121.982;2023-04-15T03:06:02;100964.0;;;23.31;34.78
48530;BME280;34927;37.302;-121.982;2023-04-15T03:07:07;100963.0;;;23.27;34.84
48530;BME280;34927;37.302;-121.982;2023-04-15T03:08:11;100966.0;;;23.23;34.93
48530;BME280;34927;37.302;-121.982;2023-04-15T03:09:16;100967.0;;;23.23;34.99
48530;BME280;34927;37.302;-121.982;2023-04-15T03:10:22;100970.0;;;23.25;34.85
48530;BME280;34927;37.302;-121.982;2023-04-15T03:11:27;100971.0;;;23.38;34.55
48530;BME280;34927;37.302;-121.982;2023-04-15T03:12:32;100972.0;;;23.42;34.55
48530;BME280;34927;37.302;-121.982;2023-04-15T03:13:37;100973.0;;;23.40;34.61
48530;BME280;34927;37.302;-121.982;2023-04-15T03:14:41;100974.0;;;23.44;34.51
48530;BME280;34927;37.302;-121.982;2023-04-15T03:15:47;100978.0;;;23.55;34.28
48530;BME280;34927;37.302;-121.982;2023-04-15T03:16:57;100977.0;;;23.38;34.56
48530;BME280;34927;37.302;-121.982;2023-04-15T03:18:02;100979.0;;;23.42;34.27
48530;BME280;34927;37.302;-121.982;2023-04-15T03:19:06;100980.0;;;23.32;34.43
48530;BME280;34927;37.302;-121.982;2023-04-15T03:20:12;100984.0;;;23.29;34.53
48530;BME280;34927;37.302;-121.982;2023-04-15T03:21:16;100986.0;;;23.30;34.53
48530;BME280;34927;37.302;-121.982;2023-04-15T03:22:22;100988.0;;;23.21;34.68
48530;BME280;34927;37.302;-121.982;2023-04-15T03:23:27;100990.0;;;23.14;34.75
48530;BME280;34927;37.302;-121.982;2023-04-15T03:24:38;100992.0;;;23.10;34.89
48530;BME280;34927;37.302;-121.982;2023-04-15T03:25:43;100994.0;;;23.21;34.66
48530;BME280;34927;37.302;-121.982;2023-04-15T03:26:48;100996.0;;;23.15;34.76
48530;BME280;34927;37.302;-121.982;2023-04-15T03:27:52;100997.0;;;23.13;34.80
48530;BME280;34927;37.302;-121.982;2023-04-15T03:28:57;100996.0;;;23.04;34.93
48530;BME280;34927;37.302;-121.982;2023-04-15T03:30:02;100998.0;;;23.01;34.98
48530;BME280;34927;37.302;-121.982;2023-04-15T03:31:07;100999.0;;;23.01;34.95
48530;BME280;34927;37.302;-121.982;2023-04-15T03:32:12;101000.0;;;22.94;35.05
48530;BME280;34927;37.302;-121.982;2023-04-15T03:33:16;100998.0;;;22.92;35.08
48530;BME280;34927;37.302;-121.982;2023-04-15T03:34:22;101001.0;;;22.90;35.12
48530;BME280;34927;37.302;-121.982;2023-04-15T03:35:27;101001.0;;;22.90;35.04
48530;BME280;34927;37.302;-121.982;2023-04-15T03:36:32;101000.0;;;22.86;35.11
48530;BME280;34927;37.302;-121.982;2023-04-15T03:37:36;101001.0;;;22.89;35.04
48530;BME280;34927;37.302;-121.982;2023-04-15T03:38:41;101005.0;;;22.93;34.97
48530;BME280;34927;37.302;-121.982;2023-04-15T03:39:47;101006.0;;;22.92;34.96
48530;BME280;34927;37.302;-121.982;2023-04-15T03:40:52;101009.0;;;22.91;35.04
48530;BME280;34927;37.302;-121.982;2023-04-15T03:41:57;101009.0;;;22.97;34.92
48530;BME280;34927;37.302;-121.982;2023-04-15T03:43:02;101011.0;;;23.00;34.81
48530;BME280;34927;37.302;-121.982;2023-04-15T03:44:06;101013.0;;;23.01;34.78
48530;BME280;34927;37.302;-121.982;2023-04-15T03:45:11;101017.0;;;22.93;34.92
48530;BME280;34927;37.302;-121.982;2023-04-15T03:46:17;101020.0;;;22.94;34.84
48530;BME280;34927;37.302;-121.982;2023-04-15T03:47:22;101020.0;;;22.83;34.87
48530;BME280;34927;37.302;-121.982;2023-04-15T03:48:27;101022.0;;;22.72;35.00
48530;BME280;34927;37.302;-121.982;2023-04-15T03:49:31;101024.0;;;22.69;35.06
48530;BME280;34927;37.302;-121.982;2023-04-15T03:50:36;101026.0;;;22.69;35.09
48530;BME280;34927;37.302;-121.982;2023-04-15T03:51:41;101029.0;;;22.72;35.00
48530;BME280;34927;37.302;-121.982;2023-04-15T03:52:46;101029.0;;;22.65;35.08
48530;BME280;34927;37.302;-121.982;2023-04-15T03:53:52;101031.0;;;22.67;35.12
48530;BME280;34927;37.302;-121.982;2023-04-15T03:54:57;101033.0;;;22.67;35.02
48530;BME280;34927;37.302;-121.982;2023-04-15T03:56:02;101035.0;;;22.63;35.14
48530;BME280;34927;37.302;-121.982;2023-04-15T03:57:06;101037.0;;;22.63;35.23
48530;BME280;34927;37.302;-121.982;2023-04-15T03:58:11;101041.0;;;22.64;35.14
48530;BME280;34927;37.302;-121.982;2023-04-15T03:59:16;101041.0;;;22.71;34.94
48530;BME280;34927;37.302;-121.982;2023-04-15T04:00:22;101044.0;;;22.62;35.06
48530;BME280;34927;37.302;-121.982;2023-04-15T04:01:26;101045.0;;;22.61;35.06
48530;BME280;34927;37.302;-121.982;2023-04-15T04:02:32;101048.0;;;22.68;34.96
48530;BME280;34927;37.302;-121.982;2023-04-15T04:03:36;101051.0;;;22.58;35.05
48530;BME280;34927;37.302;-121.982;2023-04-15T04:04:42;101055.0;;;22.59;35.06
48530;BME280;34927;37.302;-121.982;2023-04-15T04:05:47;101059.0;;;22.56;35.08
48530;BME280;34927;37.302;-121.982;2023-04-15T04:06:52;101061.0;;;22.64;34.92
48530;BME280;34927;37.302;-121.982;2023-04-15T04:07:57;101063.0;;;22.61;34.99
48530;BME280;34927;37.302;-121.982;2023-04-15T04:09:02;101064.0;;;22.65;34.92
48530;BME280;34927;37.302;-121.982;2023-04-15T04:10:07;101067.0;;;22.65;34.84
48530;BME280;34927;37.302;-121.982;2023-04-15T04:11:12;101066.0;;;22.54;34.98
48530;BME280;34927;37.302;-121.982;2023-04-15T04:12:17;101069.0;;;22.55;35.01
48530;BME280;34927;37.302;-121.982;2023-04-15T04:13:21;101066.0;;;22.52;34.94
48530;BME280;34927;37.302;-121.982;2023-04-15T04:14:27;101069.0;;;22.56;34.89
48530;BME280;34927;37.302;-121.982;2023-04-15T04:15:32;101070.0;;;22.55;34.74
48530;BME280;34927;37.302;-121.982;2023-04-15T04:16:37;101069.0;;;22.48;34.95
48530;BME280;34927;37.302;-121.982;2023-04-15T04:17:42;101071.0;;;22.47;35.16
48530;BME280;34927;37.302;-121.982;2023-04-15T04:18:47;101073.0;;;22.58;34.86
48530;BME280;34927;37.302;-121.982;2023-04-15T04:19:51;101075.0;;;22.59;34.85
48530;BME280;34927;37.302;-121.982;2023-04-15T04:20:58;101077.0;;;22.63;34.76
48530;BME280;34927;37.302;-121.982;2023-04-15T04:22:02;101080.0;;;22.53;34.91
48530;BME280;34927;37.302;-121.982;2023-04-15T04:23:07;101083.0;;;22.63;34.72
48530;BME280;34927;37.302;-121.982;2023-04-15T04:24:12;101085.0;;;22.57;34.74
48530;BME280;34927;37.302;-121.982;2023-04-15T04:25:16;101086.0;;;22.54;34.73
48530;BME280;34927;37.302;-121.982;2023-04-15T04:26:22;101086.0;;;22.57;34.62
48530;BME280;34927;37.302;-121.982;2023-04-15T04:27:26;101090.0;;;22.59;34.61
48530;BME280;34927;37.302;-121.982;2023-04-15T04:28:31;101087.0;;;22.59;34.58
48530;BME280;34927;37.302;-121.982;2023-04-15T04:29:37;101088.0;;;22.52;34.66
48530;BME280;34927;37.302;-121.982;2023-04-15T04:30:41;101090.0;;;22.55;34.54
48530;BME280;34927;37.302;-121.982;2023-04-15T04:31:46;101090.0;;;22.52;34.51
48530;BME280;34927;37.302;-121.982;2023-04-15T04:32:52;101095.0;;;22.53;34.36
48530;BME280;34927;37.302;-121.982;2023-04-15T04:33:57;101096.0;;;22.54;34.31
48530;BME280;34927;37.302;-121.982;2023-04-15T04:35:01;101095.0;;;22.49;34.40
48530;BME280;34927;37.302;-121.982;2023-04-15T04:36:07;101100.0;;;22.55;34.26
48530;BME280;34927;37.302;-121.982;2023-04-15T04:37:12;101101.0;;;22.40;34.42
48530;BME280;34927;37.302;-121.982;2023-04-15T04:38:17;101107.0;;;22.23;34.81
48530;BME280;34927;37.302;-121.982;2023-04-15T04:39:21;101107.0;;;22.31;34.77
48530;BME280;34927;37.302;-121.982;2023-04-15T04:40:26;101108.0;;;22.37;34.77
48530;BME280;34927;37.302;-121.982;2023-04-15T04:41:31;101108.0;;;22.51;34.47
48530;BME280;34927;37.302;-121.982;2023-04-15T04:42:36;101110.0;;;22.48;34.53
48530;BME280;34927;37.302;-121.982;2023-04-15T04:43:42;101118.0;;;22.31;34.70
48530;BME280;34927;37.302;-121.982;2023-04-15T04:44:46;101114.0;;;22.40;34.56
48530;BME280;34927;37.302;-121.982;2023-04-15T04:45:52;101120.0;;;22.31;34.64
48530;BME280;34927;37.302;-121.982;2023-04-15T04:46:56;101121.0;;;22.25;34.68
48530;BME280;34927;37.302;-121.982;2023-04-15T04:48:02;101122.0;;;22.23;34.78
48530;BME280;34927;37.302;-121.982;2023-04-15T04:49:06;101125.0;;;22.27;34.66
48530;BME280;34927;37.302;-121.982;2023-04-15T04:50:12;101124.0;;;22.05;34.95
48530;BME280;34927;37.302;-121.982;2023-04-15T04:51:18;101128.0;;;22.27;34.57
48530;BME280;34927;37.302;-121.982;2023-04-15T04:52:22;101126.0;;;22.06;34.85
48530;BME280;34927;37.302;-121.982;2023-04-15T04:53:27;101129.0;;;22.11;34.71
48530;BME280;34927;37.302;-121.982;2023-04-15T04:54:31;101132.0;;;22.01;34.91
48530;BME280;34927;37.302;-121.982;2023-04-15T04:55:36;101134.0;;;21.93;35.01
48530;BME280;34927;37.302;-121.982;2023-04-15T04:56:41;101134.0;;;22.02;34.93
48530;BME280;34927;37.302;-121.982;2023-04-15T04:57:46;101133.0;;;21.97;35.03
48530;BME280;34927;37.302;-121.982;2023-04-15T04:58:52;101134.0;;;22.05;34.82
48530;BME280;34927;37.302;-121.982;2023-04-15T04:59:56;101133.0;;;21.94;34.96
48530;BME280;34927;37.302;-121.982;2023-04-15T05:01:01;101130.0;;;21.72;35.30
48530;BME280;34927;37.302;-121.982;2023-04-15T05:02:06;101134.0;;;21.88;35.30
48530;BME280;34927;37.302;-121.982;2023-04-15T05:03:11;101132.0;;;22.05;35.01
48530;BME280;34927;37.302;-121.982;2023-04-15T05:04:17;101138.0;;;22.32;34.66
48530;BME280;34927;37.302;-121.982;2023-04-15T05:05:21;101135.0;;;22.62;34.24
48530;BME280;34927;37.302;-121.982;2023-04-15T05:06:27;101141.0;;;22.89;33.94
48530;BME280;34927;37.302;-121.982;2023-04-15T05:07:32;101142.0;;;23.12;33.47
48530;BME280;34927;37.302;-121.982;2023-04-15T05:08:37;101139.0;;;23.38;33.12
48530;BME280;34927;37.302;-121.982;2023-04-15T05:09:42;101141.0;;;23.57;32.76
48530;BME280;34927;37.302;-121.982;2023-04-15T05:10:47;101140.0;;;23.64;32.57
48530;BME280;34927;37.302;-121.982;2023-04-15T05:11:51;101144.0;;;23.55;32.69
48530;BME280;34927;37.302;-121.982;2023-04-15T05:12:57;101143.0;;;23.55;32.54
48530;BME280;34927;37.302;-121.982;2023-04-15T05:14:01;101145.0;;;23.52;32.61
48530;BME280;34927;37.302;-121.982;2023-04-15T05:15:08;101145.0;;;23.47;32.70
48530;BME280;34927;37.302;-121.982;2023-04-15T05:16:12;101145.0;;;23.28;33.04
48530;BME280;34927;37.302;-121.982;2023-04-15T05:17:17;101148.0;;;23.16;33.28
48530;BME280;34927;37.302;-121.982;2023-04-15T05:18:22;101151.0;;;22.86;33.85
48530;BME280;34927;37.302;-121.982;2023-04-15T05:19:27;101154.0;;;22.87;33.97
48530;BME280;34927;37.302;-121.982;2023-04-15T05:20:32;101152.0;;;22.75;34.33
48530;BME280;34927;37.302;-121.982;2023-04-15T05:21:36;101151.0;;;22.67;34.73
48530;BME280;34927;37.302;-121.982;2023-04-15T05:22:41;101153.0;;;22.78;34.76
48530;BME280;34927;37.302;-121.982;2023-04-15T05:23:47;101156.0;;;22.98;34.43
48530;BME280;34927;37.302;-121.982;2023-04-15T05:24:52;101155.0;;;23.19;34.21
48530;BME280;34927;37.302;-121.982;2023-04-15T05:25:57;101154.0;;;23.41;33.81
48530;BME280;34927;37.302;-121.982;2023-04-15T05:27:01;101154.0;;;23.67;33.30
48530;BME280;34927;37.302;-121.982;2023-04-15T05:28:06;101152.0;;;23.90;32.92
48530;BME280;34927;37.302;-121.982;2023-04-15T05:29:12;101152.0;;;23.89;32.82
48530;BME280;34927;37.302;-121.982;2023-04-15T05:30:17;101154.0;;;23.87;32.82
48530;BME280;34927;37.302;-121.982;2023-04-15T05:31:22;101153.0;;;23.75;33.33
48530;BME280;34927;37.302;-121.982;2023-04-15T05:32:27;101154.0;;;23.73;33.13